sensor_id;sensor_type;location;lat;lon;timestamp;P1;durP1;ratioP1;P2;durP2;ratioP2
21780;SDS011;52576;53.614;9.894;2023-02-15T00:00:26;123.47;;;44.08;;
21780;SDS011;52576;53.614;9.894;2023-02-15T00:02:29;138.95;;;42.63;;
21780;SDS011;52576;53.614;9.894;2023-02-15T00:04:33;151.60;;;42.67;;
21780;SDS011;52576;53.614;9.894;2023-02-15T00:06:48;140.95;;;45.03;;
21780;SDS011;52576;53.614;9.894;2023-02-15T00:08:53;168.55;;;43.58;;
21780;SDS011;52576;53.614;9.894;2023-02-15T00:11:03;171.55;;;43.58;;
21780;SDS011;52576;53.614;9.894;2023-02-15T00:13:08;171.63;;;40.35;;
21780;SDS011;52576;53.614;9.894;2023-02-15T00:15:12;137.93;;;42.03;;
21780;SDS011;52576;53.614;9.894;2023-02-15T00:17:16;139.05;;;42.38;;
21780;SDS011;52576;53.614;9.894;2023-02-15T00:19:20;129.88;;;40.70;;
21780;SDS011;52576;53.614;9.894;2023-02-15T00:21:24;129.38;;;41.03;;
21780;SDS011;52576;53.614;9.894;2023-02-15T00:23:27;112.45;;;41.83;;
21780;SDS011;52576;53.614;9.894;2023-02-15T00:25:31;126.57;;;40.90;;
21780;SDS011;52576;53.614;9.894;2023-02-15T00:27:34;121.95;;;42.28;;
21780;SDS011;52576;53.614;9.894;2023-02-15T00:29:38;198.52;;;43.05;;
21780;SDS011;52576;53.614;9.894;2023-02-15T00:31:43;127.95;;;42.42;;
21780;SDS011;52576;53.614;9.894;2023-02-15T00:33:46;306.75;;;45.47;;
21780;SDS011;52576;53.614;9.894;2023-02-15T00:35:55;116.90;;;41.05;;
21780;SDS011;52576;53.614;9.894;2023-02-15T00:38:00;116.00;;;41.63;;
21780;SDS011;52576;53.614;9.894;2023-02-15T00:40:05;450.08;;;49.65;;
21780;SDS011;52576;53.614;9.894;2023-02-15T00:42:09;109.45;;;42.20;;
21780;SDS011;52576;53.614;9.894;2023-02-15T00:44:13;117.65;;;41.90;;
21780;SDS011;52576;53.614;9.894;2023-02-15T00:46:16;109.57;;;41.53;;
21780;SDS011;52576;53.614;9.894;2023-02-15T00:48:21;101.57;;;42.38;;
21780;SDS011;52576;53.614;9.894;2023-02-15T00:50:25;121.20;;;40.42;;
21780;SDS011;52576;53.614;9.894;2023-02-15T00:52:29;111.85;;;40.72;;
21780;SDS011;52576;53.614;9.894;2023-02-15T00:54:32;91.63;;;40.15;;
21780;SDS011;52576;53.614;9.894;2023-02-15T00:56:37;110.70;;;40.08;;
21780;SDS011;52576;53.614;9.894;2023-02-15T00:58:40;135.57;;;41.50;;
21780;SDS011;52576;53.614;9.894;2023-02-15T01:00:45;122.75;;;43.13;;
21780;SDS011;52576;53.614;9.894;2023-02-15T01:02:50;134.20;;;42.40;;
21780;SDS011;52576;53.614;9.894;2023-02-15T01:04:55;99.80;;;41.00;;
21780;SDS011;52576;53.614;9.894;2023-02-15T01:06:58;126.90;;;42.03;;
21780;SDS011;52576;53.614;9.894;2023-02-15T01:09:03;165.38;;;42.28;;
21780;SDS011;52576;53.614;9.894;2023-02-15T01:11:08;117.88;;;42.30;;
21780;SDS011;52576;53.614;9.894;2023-02-15T01:13:13;137.95;;;41.60;;
21780;SDS011;52576;53.614;9.894;2023-02-15T01:15:18;125.00;;;41.53;;
21780;SDS011;52576;53.614;9.894;2023-02-15T01:17:21;209.93;;;43.35;;
21780;SDS011;52576;53.614;9.894;2023-02-15T01:19:25;110.05;;;40.83;;
21780;SDS011;52576;53.614;9.894;2023-02-15T01:21:30;108.10;;;41.80;;
21780;SDS011;52576;53.614;9.894;2023-02-15T01:23:36;105.70;;;40.45;;
21780;SDS011;52576;53.614;9.894;2023-02-15T01:25:40;96.45;;;42.65;;
21780;SDS011;52576;53.614;9.894;2023-02-15T01:27:44;147.25;;;41.65;;
21780;SDS011;52576;53.614;9.894;2023-02-15T01:29:48;108.32;;;41.78;;
21780;SDS011;52576;53.614;9.894;2023-02-15T01:31:52;119.32;;;42.55;;
21780;SDS011;52576;53.614;9.894;2023-02-15T01:33:56;126.40;;;40.40;;
21780;SDS011;52576;53.614;9.894;2023-02-15T01:35:59;142.65;;;41.03;;
21780;SDS011;52576;53.614;9.894;2023-02-15T01:38:05;216.75;;;41.97;;
21780;SDS011;52576;53.614;9.894;2023-02-15T01:40:11;163.52;;;41.33;;
21780;SDS011;52576;53.614;9.894;2023-02-15T01:42:20;161.90;;;41.67;;
21780;SDS011;52576;53.614;9.894;2023-02-15T01:46:51;372.80;;;46.85;;
21780;SDS011;52576;53.614;9.894;2023-02-15T01:48:56;99.65;;;40.83;;
21780;SDS011;52576;53.614;9.894;2023-02-15T01:51:05;121.85;;;41.75;;
21780;SDS011;52576;53.614;9.894;2023-02-15T01:53:11;188.75;;;42.75;;
21780;SDS011;52576;53.614;9.894;2023-02-15T01:55:19;128.57;;;42.65;;
21780;SDS011;52576;53.614;9.894;2023-02-15T01:57:25;181.77;;;41.47;;
21780;SDS011;52576;53.614;9.894;2023-02-15T01:59:30;125.85;;;39.35;;
21780;SDS011;52576;53.614;9.894;2023-02-15T02:01:35;186.93;;;41.08;;
21780;SDS011;52576;53.614;9.894;2023-02-15T02:03:42;284.20;;;42.67;;
21780;SDS011;52576;53.614;9.894;2023-02-15T02:05:52;111.68;;;40.35;;
21780;SDS011;52576;53.614;9.894;2023-02-15T02:07:57;156.98;;;40.88;;
21780;SDS011;52576;53.614;9.894;2023-02-15T02:10:04;101.68;;;40.22;;
21780;SDS011;52576;53.614;9.894;2023-02-15T02:12:10;248.13;;;43.10;;
21780;SDS011;52576;53.614;9.894;2023-02-15T02:14:13;372.42;;;43.83;;
21780;SDS011;52576;53.614;9.894;2023-02-15T02:16:20;110.82;;;40.28;;
21780;SDS011;52576;53.614;9.894;2023-02-15T02:18:32;118.30;;;39.33;;
21780;SDS011;52576;53.614;9.894;2023-02-15T02:20:59;138.05;;;39.35;;
21780;SDS011;52576;53.614;9.894;2023-02-15T02:23:24;95.00;;;39.40;;
21780;SDS011;52576;53.614;9.894;2023-02-15T02:25:42;116.13;;;40.38;;
21780;SDS011;52576;53.614;9.894;2023-02-15T02:28:04;455.05;;;44.65;;
21780;SDS011;52576;53.614;9.894;2023-02-15T02:33:07;157.98;;;39.75;;
21780;SDS011;52576;53.614;9.894;2023-02-15T02:35:38;129.32;;;38.42;;
21780;SDS011;52576;53.614;9.894;2023-02-15T02:37:49;126.75;;;38.85;;
21780;SDS011;52576;53.614;9.894;2023-02-15T02:40:05;108.68;;;38.78;;
21780;SDS011;52576;53.614;9.894;2023-02-15T02:42:17;104.80;;;38.45;;
21780;SDS011;52576;53.614;9.894;2023-02-15T02:44:29;120.20;;;39.53;;
21780;SDS011;52576;53.614;9.894;2023-02-15T02:46:44;118.75;;;38.95;;
21780;SDS011;52576;53.614;9.894;2023-02-15T02:48:54;180.80;;;40.05;;
21780;SDS011;52576;53.614;9.894;2023-02-15T02:50:58;194.05;;;42.28;;
21780;SDS011;52576;53.614;9.894;2023-02-15T02:53:01;128.90;;;40.13;;
21780;SDS011;52576;53.614;9.894;2023-02-15T02:55:05;98.70;;;39.42;;
21780;SDS011;52576;53.614;9.894;2023-02-15T02:57:12;213.80;;;40.35;;
21780;SDS011;52576;53.614;9.894;2023-02-15T02:59:17;187.55;;;39.83;;
21780;SDS011;52576;53.614;9.894;2023-02-15T03:01:24;142.93;;;39.33;;
21780;SDS011;52576;53.614;9.894;2023-02-15T03:03:34;157.60;;;38.35;;
21780;SDS011;52576;53.614;9.894;2023-02-15T03:05:44;116.05;;;37.95;;
21780;SDS011;52576;53.614;9.894;2023-02-15T03:07:50;132.00;;;39.67;;
21780;SDS011;52576;53.614;9.894;2023-02-15T03:10:00;137.57;;;39.08;;
21780;SDS011;52576;53.614;9.894;2023-02-15T03:12:05;141.40;;;38.63;;
21780;SDS011;52576;53.614;9.894;2023-02-15T03:14:13;92.78;;;37.53;;
21780;SDS011;52576;53.614;9.894;2023-02-15T03:16:19;125.55;;;39.45;;
21780;SDS011;52576;53.614;9.894;2023-02-15T03:18:31;116.45;;;38.97;;
21780;SDS011;52576;53.614;9.894;2023-02-15T03:20:38;142.38;;;40.08;;
21780;SDS011;52576;53.614;9.894;2023-02-15T03:22:44;220.70;;;41.47;;
21780;SDS011;52576;53.614;9.894;2023-02-15T03:24:52;118.60;;;39.17;;
21780;SDS011;52576;53.614;9.894;2023-02-15T03:27:00;209.20;;;40.28;;
21780;SDS011;52576;53.614;9.894;2023-02-15T03:29:07;184.43;;;40.30;;
21780;SDS011;52576;53.614;9.894;2023-02-15T03:31:13;84.00;;;38.17;;
21780;SDS011;52576;53.614;9.894;2023-02-15T03:33:19;127.70;;;39.75;;
21780;SDS011;52576;53.614;9.894;2023-02-15T03:35:25;103.85;;;39.78;;
21780;SDS011;52576;53.614;9.894;2023-02-15T03:37:37;168.20;;;39.08;;
21780;SDS011;52576;53.614;9.894;2023-02-15T03:39:47;114.35;;;37.78;;
21780;SDS011;52576;53.614;9.894;2023-02-15T03:41:56;149.88;;;39.75;;
21780;SDS011;52576;53.614;9.894;2023-02-15T03:44:06;187.75;;;39.50;;
21780;SDS011;52576;53.614;9.894;2023-02-15T03:46:17;92.32;;;37.25;;
21780;SDS011;52576;53.614;9.894;2023-02-15T03:48:28;156.00;;;37.75;;
21780;SDS011;52576;53.614;9.894;2023-02-15T03:50:34;191.48;;;36.05;;
21780;SDS011;52576;53.614;9.894;2023-02-15T03:52:58;111.47;;;36.70;;
21780;SDS011;52576;53.614;9.894;2023-02-15T03:55:06;99.25;;;35.83;;
21780;SDS011;52576;53.614;9.894;2023-02-15T03:57:10;139.20;;;36.40;;
21780;SDS011;52576;53.614;9.894;2023-02-15T03:59:34;137.15;;;35.25;;
21780;SDS011;52576;53.614;9.894;2023-02-15T04:01:59;186.43;;;36.17;;
21780;SDS011;52576;53.614;9.894;2023-02-15T04:04:14;126.75;;;36.92;;
21780;SDS011;52576;53.614;9.894;2023-02-15T04:06:21;100.88;;;36.78;;
21780;SDS011;52576;53.614;9.894;2023-02-15T04:08:25;149.07;;;38.60;;
21780;SDS011;52576;53.614;9.894;2023-02-15T04:10:50;125.57;;;37.55;;
21780;SDS011;52576;53.614;9.894;2023-02-15T04:12:56;142.38;;;37.92;;
21780;SDS011;52576;53.614;9.894;2023-02-15T04:14:59;117.25;;;36.88;;
21780;SDS011;52576;53.614;9.894;2023-02-15T04:17:20;99.23;;;37.27;;
21780;SDS011;52576;53.614;9.894;2023-02-15T04:19:24;115.13;;;38.47;;
21780;SDS011;52576;53.614;9.894;2023-02-15T04:21:44;123.50;;;39.37;;
21780;SDS011;52576;53.614;9.894;2023-02-15T04:24:05;194.25;;;39.70;;
21780;SDS011;52576;53.614;9.894;2023-02-15T04:26:27;113.75;;;39.13;;
21780;SDS011;52576;53.614;9.894;2023-02-15T04:28:31;103.85;;;40.22;;
21780;SDS011;52576;53.614;9.894;2023-02-15T04:30:34;101.72;;;38.60;;
21780;SDS011;52576;53.614;9.894;2023-02-15T04:32:38;117.65;;;38.33;;
21780;SDS011;52576;53.614;9.894;2023-02-15T04:34:41;119.03;;;39.35;;
21780;SDS011;52576;53.614;9.894;2023-02-15T04:36:44;113.80;;;40.30;;
21780;SDS011;52576;53.614;9.894;2023-02-15T04:38:48;209.82;;;39.60;;
21780;SDS011;52576;53.614;9.894;2023-02-15T04:40:51;108.63;;;38.25;;
21780;SDS011;52576;53.614;9.894;2023-02-15T04:42:56;106.10;;;39.38;;
21780;SDS011;52576;53.614;9.894;2023-02-15T04:45:00;116.15;;;37.58;;
21780;SDS011;52576;53.614;9.894;2023-02-15T04:47:04;191.20;;;38.88;;
21780;SDS011;52576;53.614;9.894;2023-02-15T04:49:08;235.27;;;39.20;;
21780;SDS011;52576;53.614;9.894;2023-02-15T04:51:11;509.88;;;44.65;;
21780;SDS011;52576;53.614;9.894;2023-02-15T04:53:15;103.20;;;38.10;;
21780;SDS011;52576;53.614;9.894;2023-02-15T04:55:19;178.90;;;36.30;;
21780;SDS011;52576;53.614;9.894;2023-02-15T04:57:23;158.32;;;39.78;;
21780;SDS011;52576;53.614;9.894;2023-02-15T04:59:28;303.15;;;39.78;;
21780;SDS011;52576;53.614;9.894;2023-02-15T05:01:31;118.15;;;38.13;;
21780;SDS011;52576;53.614;9.894;2023-02-15T05:03:35;85.30;;;37.47;;
21780;SDS011;52576;53.614;9.894;2023-02-15T05:05:38;125.05;;;37.58;;
21780;SDS011;52576;53.614;9.894;2023-02-15T05:07:42;127.55;;;38.53;;
21780;SDS011;52576;53.614;9.894;2023-02-15T05:09:45;88.60;;;37.85;;
21780;SDS011;52576;53.614;9.894;2023-02-15T05:11:49;151.55;;;36.92;;
21780;SDS011;52576;53.614;9.894;2023-02-15T05:13:52;86.28;;;38.00;;
21780;SDS011;52576;53.614;9.894;2023-02-15T05:15:57;124.78;;;37.65;;
21780;SDS011;52576;53.614;9.894;2023-02-15T05:18:01;124.70;;;37.15;;
21780;SDS011;52576;53.614;9.894;2023-02-15T05:20:05;108.40;;;37.35;;
21780;SDS011;52576;53.614;9.894;2023-02-15T05:22:09;129.77;;;36.92;;
21780;SDS011;52576;53.614;9.894;2023-02-15T05:24:12;127.40;;;36.60;;
21780;SDS011;52576;53.614;9.894;2023-02-15T05:26:33;155.07;;;36.25;;
21780;SDS011;52576;53.614;9.894;2023-02-15T05:28:54;162.53;;;36.87;;
21780;SDS011;52576;53.614;9.894;2023-02-15T05:31:00;101.90;;;36.15;;
21780;SDS011;52576;53.614;9.894;2023-02-15T05:33:06;118.47;;;36.70;;
21780;SDS011;52576;53.614;9.894;2023-02-15T05:35:11;103.40;;;35.22;;
21780;SDS011;52576;53.614;9.894;2023-02-15T05:37:16;115.28;;;35.13;;
21780;SDS011;52576;53.614;9.894;2023-02-15T05:39:19;104.28;;;36.00;;
21780;SDS011;52576;53.614;9.894;2023-02-15T05:41:23;79.95;;;35.70;;
21780;SDS011;52576;53.614;9.894;2023-02-15T05:43:27;235.35;;;37.30;;
21780;SDS011;52576;53.614;9.894;2023-02-15T05:45:31;111.72;;;36.88;;
21780;SDS011;52576;53.614;9.894;2023-02-15T05:47:36;139.38;;;35.20;;
21780;SDS011;52576;53.614;9.894;2023-02-15T05:49:39;174.40;;;35.05;;
21780;SDS011;52576;53.614;9.894;2023-02-15T05:51:43;88.93;;;35.90;;
21780;SDS011;52576;53.614;9.894;2023-02-15T05:53:46;108.28;;;36.03;;
21780;SDS011;52576;53.614;9.894;2023-02-15T05:55:50;85.68;;;35.28;;
21780;SDS011;52576;53.614;9.894;2023-02-15T05:57:53;402.90;;;39.15;;
21780;SDS011;52576;53.614;9.894;2023-02-15T05:59:56;95.50;;;34.78;;
21780;SDS011;52576;53.614;9.894;2023-02-15T06:02:00;147.52;;;34.92;;
21780;SDS011;52576;53.614;9.894;2023-02-15T06:04:05;89.43;;;36.22;;
21780;SDS011;52576;53.614;9.894;2023-02-15T06:06:08;99.10;;;35.40;;
21780;SDS011;52576;53.614;9.894;2023-02-15T06:08:12;160.30;;;37.20;;
21780;SDS011;52576;53.614;9.894;2023-02-15T06:10:16;123.75;;;36.58;;
21780;SDS011;52576;53.614;9.894;2023-02-15T06:12:19;124.95;;;37.53;;
21780;SDS011;52576;53.614;9.894;2023-02-15T06:14:23;92.25;;;35.35;;
21780;SDS011;52576;53.614;9.894;2023-02-15T06:16:26;101.53;;;35.38;;
21780;SDS011;52576;53.614;9.894;2023-02-15T06:18:30;341.75;;;38.42;;
21780;SDS011;52576;53.614;9.894;2023-02-15T06:20:34;455.55;;;42.80;;
21780;SDS011;52576;53.614;9.894;2023-02-15T06:22:38;157.50;;;35.75;;
21780;SDS011;52576;53.614;9.894;2023-02-15T06:24:41;244.82;;;37.60;;
21780;SDS011;52576;53.614;9.894;2023-02-15T06:26:47;113.50;;;36.83;;
21780;SDS011;52576;53.614;9.894;2023-02-15T06:28:50;180.90;;;36.53;;
21780;SDS011;52576;53.614;9.894;2023-02-15T06:30:54;125.78;;;35.78;;
21780;SDS011;52576;53.614;9.894;2023-02-15T06:33:01;280.38;;;38.65;;
21780;SDS011;52576;53.614;9.894;2023-02-15T06:35:05;128.40;;;35.70;;
21780;SDS011;52576;53.614;9.894;2023-02-15T06:37:10;113.25;;;34.28;;
21780;SDS011;52576;53.614;9.894;2023-02-15T06:39:15;189.43;;;35.05;;
21780;SDS011;52576;53.614;9.894;2023-02-15T06:41:18;356.30;;;37.88;;
21780;SDS011;52576;53.614;9.894;2023-02-15T06:43:22;145.73;;;35.17;;
21780;SDS011;52576;53.614;9.894;2023-02-15T06:45:25;147.93;;;37.00;;
21780;SDS011;52576;53.614;9.894;2023-02-15T06:47:29;143.48;;;36.97;;
21780;SDS011;52576;53.614;9.894;2023-02-15T06:49:32;427.42;;;40.95;;
21780;SDS011;52576;53.614;9.894;2023-02-15T06:51:36;102.50;;;35.67;;
21780;SDS011;52576;53.614;9.894;2023-02-15T06:53:40;91.78;;;35.28;;
21780;SDS011;52576;53.614;9.894;2023-02-15T06:55:44;123.88;;;34.97;;
21780;SDS011;52576;53.614;9.894;2023-02-15T06:57:48;112.13;;;34.40;;
21780;SDS011;52576;53.614;9.894;2023-02-15T06:59:51;90.10;;;33.95;;
21780;SDS011;52576;53.614;9.894;2023-02-15T07:01:55;83.53;;;32.60;;
21780;SDS011;52576;53.614;9.894;2023-02-15T07:03:58;90.45;;;32.35;;
21780;SDS011;52576;53.614;9.894;2023-02-15T07:06:02;140.18;;;33.10;;
21780;SDS011;52576;53.614;9.894;2023-02-15T07:08:10;114.88;;;33.90;;
21780;SDS011;52576;53.614;9.894;2023-02-15T07:10:15;115.60;;;32.90;;
21780;SDS011;52576;53.614;9.894;2023-02-15T07:12:18;90.30;;;32.03;;
21780;SDS011;52576;53.614;9.894;2023-02-15T07:14:39;82.20;;;32.53;;
21780;SDS011;52576;53.614;9.894;2023-02-15T07:16:43;100.78;;;32.50;;
21780;SDS011;52576;53.614;9.894;2023-02-15T07:18:46;80.68;;;33.38;;
21780;SDS011;52576;53.614;9.894;2023-02-15T07:20:50;127.10;;;32.63;;
21780;SDS011;52576;53.614;9.894;2023-02-15T07:22:53;93.45;;;35.58;;
21780;SDS011;52576;53.614;9.894;2023-02-15T07:24:57;75.82;;;33.55;;
21780;SDS011;52576;53.614;9.894;2023-02-15T07:27:01;105.07;;;34.58;;
21780;SDS011;52576;53.614;9.894;2023-02-15T07:29:05;107.07;;;34.72;;
21780;SDS011;52576;53.614;9.894;2023-02-15T07:31:08;93.55;;;34.13;;
21780;SDS011;52576;53.614;9.894;2023-02-15T07:33:12;68.07;;;33.10;;
21780;SDS011;52576;53.614;9.894;2023-02-15T07:35:28;96.28;;;32.42;;
21780;SDS011;52576;53.614;9.894;2023-02-15T07:37:32;78.10;;;33.60;;
21780;SDS011;52576;53.614;9.894;2023-02-15T07:39:35;80.15;;;33.90;;
21780;SDS011;52576;53.614;9.894;2023-02-15T07:41:39;160.38;;;34.55;;
21780;SDS011;52576;53.614;9.894;2023-02-15T07:43:47;82.45;;;35.63;;
21780;SDS011;52576;53.614;9.894;2023-02-15T07:45:50;102.40;;;33.97;;
21780;SDS011;52576;53.614;9.894;2023-02-15T07:47:54;200.65;;;35.70;;
21780;SDS011;52576;53.614;9.894;2023-02-15T07:49:57;81.88;;;34.83;;
21780;SDS011;52576;53.614;9.894;2023-02-15T07:52:01;82.05;;;34.45;;
21780;SDS011;52576;53.614;9.894;2023-02-15T07:54:04;110.03;;;34.70;;
21780;SDS011;52576;53.614;9.894;2023-02-15T07:56:09;108.93;;;33.65;;
21780;SDS011;52576;53.614;9.894;2023-02-15T07:58:14;112.30;;;33.38;;
21780;SDS011;52576;53.614;9.894;2023-02-15T08:00:19;125.18;;;34.15;;
21780;SDS011;52576;53.614;9.894;2023-02-15T08:02:26;113.18;;;33.67;;
21780;SDS011;52576;53.614;9.894;2023-02-15T08:04:30;77.80;;;34.95;;
21780;SDS011;52576;53.614;9.894;2023-02-15T08:06:34;128.73;;;34.80;;
21780;SDS011;52576;53.614;9.894;2023-02-15T08:08:38;118.43;;;33.35;;
21780;SDS011;52576;53.614;9.894;2023-02-15T08:10:42;177.30;;;35.95;;
21780;SDS011;52576;53.614;9.894;2023-02-15T08:13:03;76.95;;;26.45;;
21780;SDS011;52576;53.614;9.894;2023-02-15T08:15:07;101.60;;;35.90;;
21780;SDS011;52576;53.614;9.894;2023-02-15T08:17:12;91.57;;;35.65;;
21780;SDS011;52576;53.614;9.894;2023-02-15T08:19:16;87.30;;;35.60;;
21780;SDS011;52576;53.614;9.894;2023-02-15T08:21:21;83.95;;;36.08;;
21780;SDS011;52576;53.614;9.894;2023-02-15T08:23:25;87.03;;;35.67;;
21780;SDS011;52576;53.614;9.894;2023-02-15T08:25:29;105.50;;;37.00;;
21780;SDS011;52576;53.614;9.894;2023-02-15T08:27:32;97.82;;;37.55;;
21780;SDS011;52576;53.614;9.894;2023-02-15T08:29:36;148.75;;;38.03;;
21780;SDS011;52576;53.614;9.894;2023-02-15T08:31:41;93.53;;;36.47;;
21780;SDS011;52576;53.614;9.894;2023-02-15T08:33:47;101.50;;;34.00;;
21780;SDS011;52576;53.614;9.894;2023-02-15T08:35:51;104.93;;;34.72;;
21780;SDS011;52576;53.614;9.894;2023-02-15T08:37:54;114.65;;;34.25;;
21780;SDS011;52576;53.614;9.894;2023-02-15T08:39:58;97.90;;;36.90;;
21780;SDS011;52576;53.614;9.894;2023-02-15T08:42:01;93.55;;;36.22;;
21780;SDS011;52576;53.614;9.894;2023-02-15T08:44:07;77.45;;;35.55;;
21780;SDS011;52576;53.614;9.894;2023-02-15T08:46:14;84.85;;;35.80;;
21780;SDS011;52576;53.614;9.894;2023-02-15T08:48:18;95.90;;;35.83;;
21780;SDS011;52576;53.614;9.894;2023-02-15T08:50:23;90.47;;;35.70;;
21780;SDS011;52576;53.614;9.894;2023-02-15T08:52:27;97.07;;;35.60;;
21780;SDS011;52576;53.614;9.894;2023-02-15T08:54:30;178.07;;;35.53;;
21780;SDS011;52576;53.614;9.894;2023-02-15T08:56:34;72.90;;;35.63;;
21780;SDS011;52576;53.614;9.894;2023-02-15T08:58:39;99.60;;;36.33;;
21780;SDS011;52576;53.614;9.894;2023-02-15T09:00:43;94.60;;;36.25;;
21780;SDS011;52576;53.614;9.894;2023-02-15T09:02:48;74.95;;;35.50;;
21780;SDS011;52576;53.614;9.894;2023-02-15T09:04:51;84.13;;;35.22;;
21780;SDS011;52576;53.614;9.894;2023-02-15T09:06:56;78.50;;;35.65;;
21780;SDS011;52576;53.614;9.894;2023-02-15T09:09:00;74.63;;;36.47;;
21780;SDS011;52576;53.614;9.894;2023-02-15T09:11:06;68.78;;;36.03;;
21780;SDS011;52576;53.614;9.894;2023-02-15T09:13:11;84.40;;;37.20;;
21780;SDS011;52576;53.614;9.894;2023-02-15T09:15:14;75.22;;;35.30;;
21780;SDS011;52576;53.614;9.894;2023-02-15T09:17:18;70.45;;;35.08;;
21780;SDS011;52576;53.614;9.894;2023-02-15T09:19:22;66.22;;;34.92;;
21780;SDS011;52576;53.614;9.894;2023-02-15T09:21:26;82.88;;;36.40;;
21780;SDS011;52576;53.614;9.894;2023-02-15T09:23:32;77.90;;;34.95;;
21780;SDS011;52576;53.614;9.894;2023-02-15T09:25:36;84.53;;;35.92;;
21780;SDS011;52576;53.614;9.894;2023-02-15T09:27:40;75.18;;;36.13;;
21780;SDS011;52576;53.614;9.894;2023-02-15T09:29:43;160.85;;;36.80;;
21780;SDS011;52576;53.614;9.894;2023-02-15T09:31:47;78.10;;;37.45;;
21780;SDS011;52576;53.614;9.894;2023-02-15T09:33:52;72.20;;;38.22;;
21780;SDS011;52576;53.614;9.894;2023-02-15T09:35:55;69.93;;;36.25;;
21780;SDS011;52576;53.614;9.894;2023-02-15T09:37:59;65.78;;;35.42;;
21780;SDS011;52576;53.614;9.894;2023-02-15T09:40:05;64.38;;;35.28;;
21780;SDS011;52576;53.614;9.894;2023-02-15T09:42:16;66.95;;;34.72;;
21780;SDS011;52576;53.614;9.894;2023-02-15T09:44:59;62.58;;;34.50;;
21780;SDS011;52576;53.614;9.894;2023-02-15T09:47:15;60.10;;;33.17;;
21780;SDS011;52576;53.614;9.894;2023-02-15T09:49:36;65.68;;;33.95;;
21780;SDS011;52576;53.614;9.894;2023-02-15T09:51:51;63.58;;;34.47;;
21780;SDS011;52576;53.614;9.894;2023-02-15T09:54:09;70.50;;;36.20;;
21780;SDS011;52576;53.614;9.894;2023-02-15T09:56:26;71.25;;;35.58;;
21780;SDS011;52576;53.614;9.894;2023-02-15T09:58:36;76.75;;;36.20;;
21780;SDS011;52576;53.614;9.894;2023-02-15T10:00:50;68.30;;;35.47;;
21780;SDS011;52576;53.614;9.894;2023-02-15T10:03:06;68.40;;;35.97;;
21780;SDS011;52576;53.614;9.894;2023-02-15T10:05:21;69.93;;;36.03;;
21780;SDS011;52576;53.614;9.894;2023-02-15T10:07:37;64.88;;;36.33;;
21780;SDS011;52576;53.614;9.894;2023-02-15T10:10:02;67.30;;;36.50;;
21780;SDS011;52576;53.614;9.894;2023-02-15T10:12:28;65.95;;;35.58;;
21780;SDS011;52576;53.614;9.894;2023-02-15T10:17:25;59.83;;;33.42;;
21780;SDS011;52576;53.614;9.894;2023-02-15T10:19:41;63.35;;;35.80;;
21780;SDS011;52576;53.614;9.894;2023-02-15T10:21:57;64.25;;;35.28;;
21780;SDS011;52576;53.614;9.894;2023-02-15T10:24:17;62.13;;;35.90;;
21780;SDS011;52576;53.614;9.894;2023-02-15T10:26:42;61.22;;;35.70;;
21780;SDS011;52576;53.614;9.894;2023-02-15T10:28:50;62.97;;;35.63;;
21780;SDS011;52576;53.614;9.894;2023-02-15T10:30:57;62.65;;;36.67;;
21780;SDS011;52576;53.614;9.894;2023-02-15T10:33:07;64.78;;;36.60;;
21780;SDS011;52576;53.614;9.894;2023-02-15T10:35:20;63.28;;;36.00;;
21780;SDS011;52576;53.614;9.894;2023-02-15T10:37:34;61.55;;;36.97;;
21780;SDS011;52576;53.614;9.894;2023-02-15T10:39:51;62.38;;;36.90;;
21780;SDS011;52576;53.614;9.894;2023-02-15T10:42:06;67.28;;;37.28;;
21780;SDS011;52576;53.614;9.894;2023-02-15T10:44:30;67.10;;;37.28;;
21780;SDS011;52576;53.614;9.894;2023-02-15T10:47:01;64.50;;;38.35;;
21780;SDS011;52576;53.614;9.894;2023-02-15T10:49:26;64.10;;;37.47;;
21780;SDS011;52576;53.614;9.894;2023-02-15T10:51:48;70.20;;;38.78;;
21780;SDS011;52576;53.614;9.894;2023-02-15T10:54:05;67.97;;;37.90;;
21780;SDS011;52576;53.614;9.894;2023-02-15T10:56:20;66.82;;;37.50;;
21780;SDS011;52576;53.614;9.894;2023-02-15T10:58:31;70.07;;;39.95;;
21780;SDS011;52576;53.614;9.894;2023-02-15T11:00:49;71.45;;;39.58;;
21780;SDS011;52576;53.614;9.894;2023-02-15T11:03:09;66.15;;;38.05;;
21780;SDS011;52576;53.614;9.894;2023-02-15T11:05:32;68.80;;;38.58;;
21780;SDS011;52576;53.614;9.894;2023-02-15T11:07:43;70.50;;;40.08;;
21780;SDS011;52576;53.614;9.894;2023-02-15T11:09:51;71.35;;;39.78;;
21780;SDS011;52576;53.614;9.894;2023-02-15T11:11:59;68.22;;;39.72;;
21780;SDS011;52576;53.614;9.894;2023-02-15T11:14:03;69.75;;;39.47;;
21780;SDS011;52576;53.614;9.894;2023-02-15T11:16:17;68.65;;;38.70;;
21780;SDS011;52576;53.614;9.894;2023-02-15T11:18:27;70.93;;;38.92;;
21780;SDS011;52576;53.614;9.894;2023-02-15T11:20:35;69.80;;;40.17;;
21780;SDS011;52576;53.614;9.894;2023-02-15T11:22:46;72.45;;;39.55;;
21780;SDS011;52576;53.614;9.894;2023-02-15T11:24:52;68.53;;;39.20;;
21780;SDS011;52576;53.614;9.894;2023-02-15T11:27:00;66.60;;;39.90;;
21780;SDS011;52576;53.614;9.894;2023-02-15T11:29:07;64.65;;;39.38;;
21780;SDS011;52576;53.614;9.894;2023-02-15T11:31:18;67.18;;;39.22;;
21780;SDS011;52576;53.614;9.894;2023-02-15T11:33:25;68.68;;;38.15;;
21780;SDS011;52576;53.614;9.894;2023-02-15T11:35:33;65.75;;;39.75;;
21780;SDS011;52576;53.614;9.894;2023-02-15T11:37:44;61.13;;;37.55;;
21780;SDS011;52576;53.614;9.894;2023-02-15T11:39:51;62.75;;;37.35;;
21780;SDS011;52576;53.614;9.894;2023-02-15T11:41:59;61.38;;;37.00;;
21780;SDS011;52576;53.614;9.894;2023-02-15T11:44:10;57.88;;;36.63;;
21780;SDS011;52576;53.614;9.894;2023-02-15T11:46:20;58.17;;;37.25;;
21780;SDS011;52576;53.614;9.894;2023-02-15T11:48:23;57.75;;;37.08;;
21780;SDS011;52576;53.614;9.894;2023-02-15T11:50:27;59.28;;;36.75;;
21780;SDS011;52576;53.614;9.894;2023-02-15T11:52:33;57.25;;;37.03;;
21780;SDS011;52576;53.614;9.894;2023-02-15T11:54:39;54.38;;;35.78;;
21780;SDS011;52576;53.614;9.894;2023-02-15T11:56:45;57.13;;;36.22;;
21780;SDS011;52576;53.614;9.894;2023-02-15T11:58:49;59.00;;;37.00;;
21780;SDS011;52576;53.614;9.894;2023-02-15T12:01:00;54.58;;;35.78;;
21780;SDS011;52576;53.614;9.894;2023-02-15T12:03:14;57.20;;;35.97;;
21780;SDS011;52576;53.614;9.894;2023-02-15T12:05:24;57.05;;;37.13;;
21780;SDS011;52576;53.614;9.894;2023-02-15T12:07:30;53.00;;;35.05;;
21780;SDS011;52576;53.614;9.894;2023-02-15T12:09:38;55.53;;;35.13;;
21780;SDS011;52576;53.614;9.894;2023-02-15T12:11:48;52.42;;;35.28;;
21780;SDS011;52576;53.614;9.894;2023-02-15T12:13:55;55.13;;;35.20;;
21780;SDS011;52576;53.614;9.894;2023-02-15T12:16:04;50.80;;;34.67;;
21780;SDS011;52576;53.614;9.894;2023-02-15T12:18:20;51.50;;;34.05;;
21780;SDS011;52576;53.614;9.894;2023-02-15T12:20:34;50.67;;;34.40;;
21780;SDS011;52576;53.614;9.894;2023-02-15T12:22:46;52.55;;;34.00;;
21780;SDS011;52576;53.614;9.894;2023-02-15T12:24:54;53.42;;;33.58;;
21780;SDS011;52576;53.614;9.894;2023-02-15T12:27:00;49.60;;;32.85;;